createdAt,value
2019-03-25T00:00:42.123Z,10.30
2019-03-25T00:03:10.533Z,10.30
2019-03-25T00:05:38.960Z,10.40
2019-03-25T00:08:07.385Z,10.40
2019-03-25T00:10:41.764Z,10.30
2019-03-25T00:13:10.222Z,10.30
2019-03-25T00:15:38.750Z,10.20
2019-03-25T00:18:07.262Z,10.30
2019-03-25T00:20:35.724Z,10.30
2019-03-25T00:23:04.121Z,10.40
2019-03-25T00:25:32.802Z,10.40
2019-03-25T00:28:01.249Z,10.40
2019-03-25T00:30:29.653Z,10.40
2019-03-25T00:32:58.111Z,10.40
2019-03-25T00:35:26.613Z,10.40
2019-03-25T00:37:55.129Z,10.40
2019-03-25T00:40:23.583Z,10.40
2019-03-25T00:42:51.997Z,10.40
2019-03-25T00:45:20.441Z,10.40
2019-03-25T00:47:48.908Z,10.40
2019-03-25T00:50:17.700Z,10.40
2019-03-25T00:52:46.154Z,10.40
2019-03-25T00:55:14.898Z,10.40
2019-03-25T00:57:43.297Z,10.40
2019-03-25T01:00:12.107Z,10.40
2019-03-25T01:02:40.561Z,10.40
2019-03-25T01:05:09.229Z,10.40
2019-03-25T01:07:37.637Z,10.40
2019-03-25T01:10:08.321Z,10.40
2019-03-25T01:12:36.731Z,10.30
2019-03-25T01:15:06.985Z,10.30
2019-03-25T01:17:35.393Z,10.30
2019-03-25T01:20:06.255Z,10.20
2019-03-25T01:22:34.809Z,10.20
2019-03-25T01:25:03.433Z,10.30
2019-03-25T01:27:31.858Z,10.30
2019-03-25T01:30:00.342Z,10.40
2019-03-25T01:32:28.791Z,10.20
2019-03-25T01:34:57.253Z,10.20
2019-03-25T01:37:25.730Z,10.20
2019-03-25T01:39:54.213Z,10.20
2019-03-25T01:42:22.659Z,10.20
2019-03-25T01:44:51.091Z,10.30
2019-03-25T01:47:19.582Z,10.20
2019-03-25T01:49:48.005Z,10.20
2019-03-25T01:52:16.457Z,10.30
2019-03-25T01:54:44.877Z,10.20
2019-03-25T01:57:13.321Z,10.10
2019-03-25T01:59:41.734Z,10.10
2019-03-25T02:02:10.174Z,10.10
2019-03-25T02:04:38.622Z,10.00
2019-03-25T02:07:07.069Z,10.00
2019-03-25T02:09:35.470Z,10.00
2019-03-25T02:12:03.933Z,9.90
2019-03-25T02:14:32.347Z,9.90
2019-03-25T02:17:00.761Z,9.90
2019-03-25T02:19:29.177Z,9.90
2019-03-25T02:21:57.695Z,9.90
2019-03-25T02:24:26.097Z,9.90
2019-03-25T02:26:54.543Z,9.90
2019-03-25T02:29:23.033Z,9.90
2019-03-25T02:31:51.438Z,10.00
2019-03-25T02:34:19.850Z,9.90
2019-03-25T02:36:48.258Z,9.90
2019-03-25T02:39:16.670Z,9.80
2019-03-25T02:41:45.079Z,9.80
2019-03-25T02:44:13.490Z,9.80
2019-03-25T02:46:41.909Z,9.80
2019-03-25T02:49:10.386Z,9.70
2019-03-25T02:51:38.825Z,9.70
2019-03-25T02:54:07.345Z,9.60
2019-03-25T02:56:35.763Z,9.60
2019-03-25T02:59:04.187Z,9.70
2019-03-25T03:01:32.628Z,9.60
2019-03-25T03:04:01.030Z,9.60
2019-03-25T03:06:29.445Z,9.60
2019-03-25T03:08:57.862Z,9.60
2019-03-25T03:11:26.396Z,9.60
2019-03-25T03:13:54.871Z,9.60
2019-03-25T03:16:23.307Z,9.60
2019-03-25T03:18:51.781Z,9.60
2019-03-25T03:21:20.515Z,9.60
2019-03-25T03:23:48.941Z,9.60
2019-03-25T03:26:17.360Z,9.60
2019-03-25T03:28:46.055Z,9.60
2019-03-25T03:31:14.530Z,9.70
2019-03-25T03:33:43.082Z,9.60
2019-03-25T03:36:11.574Z,9.70
2019-03-25T03:38:39.997Z,9.70
2019-03-25T03:41:08.413Z,9.70
2019-03-25T03:43:36.835Z,9.70
2019-03-25T03:46:05.270Z,9.80
2019-03-25T03:48:33.676Z,9.70
2019-03-25T03:51:02.158Z,9.70
2019-03-25T03:53:30.610Z,9.70
2019-03-25T03:56:12.951Z,9.70
2019-03-25T03:58:31.950Z,9.60
2019-03-25T04:01:00.367Z,9.60
2019-03-25T04:03:28.790Z,9.60
2019-03-25T04:05:57.201Z,9.60
2019-03-25T04:08:25.614Z,9.60
2019-03-25T04:10:54.039Z,9.60
2019-03-25T04:13:22.471Z,9.60
2019-03-25T04:15:50.887Z,9.50
2019-03-25T04:18:19.312Z,9.50
2019-03-25T04:20:47.738Z,9.50
2019-03-25T04:23:16.159Z,9.50
2019-03-25T04:25:44.610Z,9.40
2019-03-25T04:28:13.467Z,9.40
2019-03-25T04:30:41.866Z,9.30
2019-03-25T04:33:10.285Z,9.20
2019-03-25T04:35:38.725Z,9.20
2019-03-25T04:38:07.162Z,9.20
2019-03-25T04:40:35.606Z,9.10
2019-03-25T04:43:04.035Z,9.00
2019-03-25T04:45:32.555Z,9.00
2019-03-25T04:48:01.074Z,9.00
2019-03-25T04:50:29.493Z,9.00
2019-03-25T04:52:57.922Z,9.00
2019-03-25T04:55:26.370Z,9.00
2019-03-25T04:57:54.804Z,9.10
2019-03-25T05:00:32.410Z,9.10
2019-03-25T05:03:00.834Z,9.10
2019-03-25T05:05:29.269Z,9.10
2019-03-25T05:07:57.757Z,9.10
2019-03-25T05:10:26.201Z,9.10
2019-03-25T05:12:54.630Z,9.10
2019-03-25T05:15:23.095Z,8.90
2019-03-25T05:17:51.529Z,8.90
2019-03-25T05:20:19.980Z,8.90
2019-03-25T05:22:48.398Z,8.80
2019-03-25T05:25:16.820Z,8.70
2019-03-25T05:27:45.226Z,8.60
2019-03-25T05:30:14.093Z,8.60
2019-03-25T05:32:42.773Z,8.60
2019-03-25T05:35:11.341Z,8.50
2019-03-25T05:37:39.756Z,8.40
2019-03-25T05:40:08.623Z,8.30
2019-03-25T05:42:37.047Z,8.30
2019-03-25T05:45:07.141Z,8.30
2019-03-25T05:47:35.574Z,8.20
2019-03-25T05:50:08.875Z,7.90
2019-03-25T05:52:36.544Z,7.90
2019-03-25T05:55:06.901Z,7.90
2019-03-25T05:57:35.320Z,7.90
2019-03-25T06:00:04.205Z,7.90
2019-03-25T06:02:32.639Z,8.00
2019-03-25T06:05:01.081Z,8.00
2019-03-25T06:07:29.542Z,8.00
2019-03-25T06:09:58.051Z,7.90
2019-03-25T06:12:26.477Z,7.80
2019-03-25T06:14:54.933Z,7.80
2019-03-25T06:17:23.359Z,7.80
2019-03-25T06:19:51.821Z,7.90
2019-03-25T06:22:20.229Z,7.90
2019-03-25T06:24:48.823Z,7.90
2019-03-25T06:27:17.237Z,7.90
2019-03-25T06:29:45.668Z,7.90
2019-03-25T06:32:14.087Z,7.90
2019-03-25T06:34:42.501Z,7.80
2019-03-25T06:37:10.967Z,7.80
2019-03-25T06:39:39.377Z,7.80
2019-03-25T06:42:07.810Z,8.00
2019-03-25T06:44:36.549Z,8.00
2019-03-25T06:47:04.997Z,8.20
2019-03-25T06:49:33.394Z,8.30
2019-03-25T06:52:01.863Z,8.50
2019-03-25T06:54:30.314Z,8.60
2019-03-25T06:56:58.732Z,8.80
2019-03-25T06:59:27.141Z,9.10
2019-03-25T07:01:55.585Z,9.20
2019-03-25T07:04:24.030Z,9.50
2019-03-25T07:06:52.446Z,9.60
2019-03-25T07:09:20.861Z,9.70
2019-03-25T07:11:49.682Z,9.80
2019-03-25T07:14:18.181Z,9.80
2019-03-25T07:16:46.580Z,9.70
2019-03-25T07:19:15.022Z,9.90
2019-03-25T07:21:43.429Z,10.00
2019-03-25T07:24:11.857Z,10.30
2019-03-25T07:26:40.262Z,10.50
2019-03-25T07:29:08.719Z,10.60
2019-03-25T07:31:37.642Z,10.90
2019-03-25T07:34:06.057Z,11.00
2019-03-25T07:36:34.473Z,10.90
2019-03-25T07:39:03.384Z,11.10
2019-03-25T07:41:31.802Z,11.30
2019-03-25T07:44:00.242Z,11.40
2019-03-25T07:46:28.659Z,11.50
2019-03-25T07:48:57.150Z,11.50
2019-03-25T07:51:25.553Z,11.60
2019-03-25T07:53:53.978Z,11.70
2019-03-25T07:56:41.838Z,11.70
2019-03-25T07:59:10.320Z,11.80
2019-03-25T08:01:38.752Z,11.80
2019-03-25T08:04:07.216Z,11.80
2019-03-25T08:06:35.748Z,11.70
2019-03-25T08:09:05.167Z,11.60
2019-03-25T08:11:33.572Z,11.60
2019-03-25T08:14:02.018Z,11.70
2019-03-25T08:16:30.433Z,11.90
2019-03-25T08:18:58.876Z,11.80
2019-03-25T08:21:27.306Z,11.70
2019-03-25T08:23:55.750Z,11.60
2019-03-25T08:26:24.165Z,10.80
2019-03-25T08:28:52.609Z,10.60
2019-03-25T08:31:21.057Z,10.60
2019-03-25T08:33:49.545Z,10.70
2019-03-25T08:36:17.967Z,10.80
2019-03-25T08:38:46.418Z,10.70
2019-03-25T08:41:14.833Z,10.50
2019-03-25T08:43:43.271Z,10.60
2019-03-25T08:46:11.698Z,10.60
2019-03-25T08:48:40.132Z,10.60
2019-03-25T08:51:08.579Z,10.50
2019-03-25T08:53:37.094Z,10.40
2019-03-25T08:56:05.591Z,10.50
2019-03-25T08:58:34.136Z,10.70
2019-03-25T09:01:02.613Z,10.70
2019-03-25T09:03:31.045Z,10.70
2019-03-25T09:05:59.660Z,10.70
2019-03-25T09:08:28.189Z,10.70
2019-03-25T09:10:56.609Z,10.70
2019-03-25T09:13:25.192Z,10.20
2019-03-25T09:15:53.942Z,10.00
2019-03-25T09:18:22.387Z,9.90
2019-03-25T09:20:50.861Z,9.90
2019-03-25T09:23:19.305Z,9.80
2019-03-25T09:25:47.745Z,9.80
2019-03-25T09:28:24.322Z,9.90
2019-03-25T09:30:55.369Z,10.00
2019-03-25T09:33:24.000Z,10.20
2019-03-25T09:35:52.934Z,10.40
2019-03-25T09:38:21.458Z,10.70
2019-03-25T09:40:49.973Z,10.70
2019-03-25T09:43:18.462Z,10.90
2019-03-25T09:45:46.935Z,11.20
2019-03-25T09:48:15.349Z,11.50
2019-03-25T09:50:43.807Z,11.70
2019-03-25T09:53:12.237Z,11.90
2019-03-25T09:55:40.661Z,11.90
2019-03-25T09:58:09.089Z,11.90
2019-03-25T10:00:37.521Z,11.60
2019-03-25T10:03:05.938Z,11.30
2019-03-25T10:05:34.439Z,11.40
2019-03-25T10:08:02.917Z,11.50
2019-03-25T10:10:31.365Z,11.90
2019-03-25T10:12:59.775Z,12.10
2019-03-25T10:15:28.194Z,12.00
2019-03-25T10:17:56.602Z,11.80
2019-03-25T10:20:25.074Z,11.80
2019-03-25T10:22:53.518Z,11.50
2019-03-25T10:25:21.970Z,11.40
2019-03-25T10:27:50.367Z,11.00
2019-03-25T10:30:19.246Z,11.00
2019-03-25T10:32:47.677Z,11.10
2019-03-25T10:35:16.180Z,11.30
2019-03-25T10:37:44.656Z,11.50
2019-03-25T10:40:14.242Z,11.40
2019-03-25T10:42:42.721Z,11.40
2019-03-25T10:45:11.593Z,11.30
2019-03-25T10:47:40.091Z,11.00
2019-03-25T10:50:09.297Z,11.20
2019-03-25T10:52:37.699Z,11.10
2019-03-25T10:55:07.886Z,11.10
2019-03-25T10:57:36.634Z,11.20
2019-03-25T11:00:09.586Z,11.20
2019-03-25T11:02:38.010Z,11.00
2019-03-25T11:05:07.372Z,10.80
2019-03-25T11:07:35.940Z,10.60
2019-03-25T11:10:07.885Z,10.60
2019-03-25T11:12:36.306Z,10.50
2019-03-25T11:15:08.881Z,10.40
2019-03-25T11:17:37.688Z,10.20
2019-03-25T11:20:10.798Z,10.10
2019-03-25T11:22:39.337Z,10.10
2019-03-25T11:25:08.428Z,10.10
2019-03-25T11:27:36.889Z,10.20
2019-03-25T11:30:08.011Z,10.10
2019-03-25T11:32:36.440Z,10.20
2019-03-25T11:35:06.901Z,10.20
2019-03-25T11:37:35.349Z,10.40
2019-03-25T11:40:06.722Z,10.60
2019-03-25T11:42:35.187Z,10.70
2019-03-25T11:45:05.893Z,10.80
2019-03-25T11:47:34.333Z,10.80
2019-03-25T11:50:03.181Z,10.80
2019-03-25T11:52:32.020Z,10.80
2019-03-25T11:55:00.556Z,10.70
2019-03-25T11:57:29.123Z,10.50
2019-03-25T11:59:57.693Z,10.40
2019-03-25T12:02:26.139Z,10.40
2019-03-25T12:04:54.576Z,10.20
2019-03-25T12:07:23.054Z,10.10
2019-03-25T12:09:51.536Z,9.90
2019-03-25T12:12:19.980Z,9.30
2019-03-25T12:14:48.516Z,8.60
2019-03-25T12:17:16.945Z,8.10
2019-03-25T12:19:45.386Z,7.80
2019-03-25T12:22:13.822Z,7.60
2019-03-25T12:24:42.229Z,7.70
2019-03-25T12:27:10.673Z,7.80
2019-03-25T12:29:39.098Z,7.80
2019-03-25T12:32:07.779Z,7.90
2019-03-25T12:34:36.217Z,8.00
2019-03-25T12:37:04.645Z,8.30
2019-03-25T12:39:33.074Z,8.50
2019-03-25T12:42:01.549Z,8.60
2019-03-25T12:44:30.050Z,8.60
2019-03-25T12:47:17.831Z,8.70
2019-03-25T12:49:46.325Z,8.80
2019-03-25T12:52:14.773Z,8.70
2019-03-25T12:54:43.207Z,8.80
2019-03-25T12:57:11.613Z,8.90
2019-03-25T12:59:41.520Z,9.00
2019-03-25T13:02:10.259Z,9.10
2019-03-25T13:04:38.718Z,9.20
2019-03-25T13:07:07.237Z,9.20
2019-03-25T13:09:35.692Z,9.30
2019-03-25T13:12:04.233Z,9.30
2019-03-25T13:14:35.013Z,9.30
2019-03-25T13:17:02.849Z,9.40
2019-03-25T13:19:31.333Z,9.60
2019-03-25T13:21:59.921Z,9.40
2019-03-25T13:24:28.435Z,9.40
2019-03-25T13:26:56.875Z,9.40
2019-03-25T13:29:25.397Z,9.30
2019-03-25T13:31:53.836Z,9.20
2019-03-25T13:34:22.359Z,9.00
2019-03-25T13:36:50.851Z,8.90
2019-03-25T13:39:19.345Z,8.90
2019-03-25T13:41:47.769Z,8.80
2019-03-25T13:44:16.206Z,8.70
2019-03-25T13:46:44.709Z,8.60
2019-03-25T13:49:13.182Z,8.60
2019-03-25T13:51:41.912Z,8.60
2019-03-25T13:54:10.425Z,8.70
2019-03-25T13:56:38.844Z,8.60
2019-03-25T13:59:07.476Z,8.60
2019-03-25T14:01:35.883Z,8.30
2019-03-25T14:04:04.417Z,8.10
2019-03-25T14:06:32.810Z,7.90
2019-03-25T14:09:01.269Z,7.70
2019-03-25T14:11:32.429Z,7.80
2019-03-25T14:14:00.914Z,7.60
2019-03-25T14:16:29.385Z,7.70
2019-03-25T14:18:57.853Z,7.90
2019-03-25T14:21:26.253Z,7.90
2019-03-25T14:23:54.672Z,7.80
2019-03-25T14:26:23.138Z,8.00
2019-03-25T14:28:51.573Z,8.20
2019-03-25T14:31:20.047Z,8.40
2019-03-25T14:33:48.509Z,8.40
2019-03-25T14:36:17.084Z,8.40
2019-03-25T14:38:45.498Z,8.50
2019-03-25T14:41:14.061Z,8.50
2019-03-25T14:43:42.821Z,8.50
2019-03-25T14:46:11.301Z,8.60
2019-03-25T14:48:39.701Z,8.70
2019-03-25T14:51:08.161Z,8.60
2019-03-25T14:53:44.770Z,8.50
2019-03-25T14:56:06.781Z,8.50
2019-03-25T14:58:35.267Z,8.50
2019-03-25T15:01:04.060Z,8.60
2019-03-25T15:03:32.481Z,8.60
2019-03-25T15:06:00.914Z,8.60
2019-03-25T15:08:29.751Z,8.70
2019-03-25T15:10:58.220Z,8.70
2019-03-25T15:13:26.761Z,8.80
2019-03-25T15:15:55.287Z,8.90
2019-03-25T15:18:23.706Z,9.00
2019-03-25T15:20:52.214Z,8.90
2019-03-25T15:23:20.644Z,8.80
2019-03-25T15:25:49.129Z,8.90
2019-03-25T15:28:17.583Z,8.40
2019-03-25T15:30:46.010Z,7.70
2019-03-25T15:33:14.417Z,7.40
2019-03-25T15:35:42.884Z,7.10
2019-03-25T15:38:11.351Z,6.80
2019-03-25T15:40:40.315Z,6.60
2019-03-25T15:43:10.253Z,6.50
2019-03-25T15:45:38.741Z,6.40
2019-03-25T15:48:07.210Z,6.40
2019-03-25T15:50:35.756Z,6.40
2019-03-25T15:53:04.696Z,6.50
2019-03-25T15:55:33.146Z,6.70
2019-03-25T15:58:01.557Z,6.70
2019-03-25T16:00:29.957Z,6.80
2019-03-25T16:02:58.381Z,6.80
2019-03-25T16:05:26.856Z,6.60
2019-03-25T16:07:55.377Z,6.50
2019-03-25T16:10:23.975Z,6.50
2019-03-25T16:12:52.405Z,6.60
2019-03-25T16:15:43.058Z,6.50
2019-03-25T16:18:31.086Z,6.60
2019-03-25T16:20:59.834Z,6.70
2019-03-25T16:23:28.250Z,6.80
2019-03-25T16:25:56.670Z,6.80
2019-03-25T16:28:25.077Z,6.90
2019-03-25T16:30:58.757Z,6.90
2019-03-25T16:33:23.653Z,6.90
2019-03-25T16:35:52.063Z,6.80
2019-03-25T16:38:20.507Z,6.80
2019-03-25T16:40:48.940Z,6.70
2019-03-25T16:43:17.376Z,6.70
2019-03-25T16:45:45.799Z,6.70
2019-03-25T16:48:14.257Z,6.60
2019-03-25T16:50:42.743Z,6.60
2019-03-25T16:53:11.223Z,6.50
2019-03-25T16:55:39.676Z,6.50
2019-03-25T16:58:08.126Z,6.40
2019-03-25T17:00:36.647Z,6.50
2019-03-25T17:03:05.122Z,6.40
2019-03-25T17:05:33.825Z,6.40
2019-03-25T17:08:02.376Z,6.20
2019-03-25T17:10:30.809Z,6.20
2019-03-25T17:12:59.276Z,6.20
2019-03-25T17:15:28.107Z,6.20
2019-03-25T17:17:56.553Z,6.30
2019-03-25T17:20:25.067Z,6.30
2019-03-25T17:22:53.566Z,6.40
2019-03-25T17:25:22.027Z,6.40
2019-03-25T17:27:50.479Z,6.50
2019-03-25T17:30:20.532Z,6.60
2019-03-25T17:32:48.989Z,6.60
2019-03-25T17:35:17.470Z,6.30
2019-03-25T17:37:45.894Z,6.10
2019-03-25T17:40:14.621Z,6.00
2019-03-25T17:42:43.168Z,5.80
2019-03-25T17:45:12.240Z,5.70
2019-03-25T17:47:40.656Z,5.70
2019-03-25T17:50:09.505Z,5.60
2019-03-25T17:52:37.988Z,5.60
2019-03-25T17:55:08.394Z,5.50
2019-03-25T17:57:36.846Z,5.50
2019-03-25T18:00:12.711Z,5.50
2019-03-25T18:02:41.111Z,5.50
2019-03-25T18:05:12.493Z,5.60
2019-03-25T18:07:40.926Z,5.60
2019-03-25T18:10:09.846Z,5.60
2019-03-25T18:12:39.262Z,5.50
2019-03-25T18:15:12.061Z,5.50
2019-03-25T18:17:40.530Z,5.50
2019-03-25T18:20:17.979Z,5.40
2019-03-25T18:22:40.024Z,5.40
2019-03-25T18:25:08.777Z,5.40
2019-03-25T18:27:37.318Z,5.40
2019-03-25T18:30:07.665Z,5.50
2019-03-25T18:32:36.137Z,5.50
2019-03-25T18:35:05.897Z,5.60
2019-03-25T18:37:53.679Z,5.70
2019-03-25T18:40:22.092Z,5.70
2019-03-25T18:42:50.694Z,5.70
2019-03-25T18:45:19.150Z,5.70
2019-03-25T18:47:48.150Z,5.60
2019-03-25T18:50:16.646Z,5.70
2019-03-25T18:52:45.383Z,5.70
2019-03-25T18:55:13.865Z,5.70
2019-03-25T18:57:42.406Z,5.70
2019-03-25T19:00:31.824Z,5.60
2019-03-25T19:03:04.058Z,5.60
2019-03-25T19:05:32.747Z,5.50
2019-03-25T19:08:04.346Z,5.40
2019-03-25T19:10:32.928Z,5.30
2019-03-25T19:13:01.446Z,5.20
2019-03-25T19:15:30.351Z,5.30
2019-03-25T19:17:58.882Z,5.20
2019-03-25T19:20:27.494Z,5.10
2019-03-25T19:22:55.930Z,5.00
2019-03-25T19:25:24.388Z,5.00
2019-03-25T19:27:52.887Z,5.00
2019-03-25T19:30:21.341Z,4.90
2019-03-25T19:32:49.815Z,4.90
2019-03-25T19:35:18.313Z,4.80
2019-03-25T19:37:47.164Z,4.80
2019-03-25T19:40:16.248Z,4.70
2019-03-25T19:42:44.745Z,4.70
2019-03-25T19:45:14.470Z,4.50
2019-03-25T19:47:42.977Z,4.40
2019-03-25T19:50:11.932Z,4.20
2019-03-25T19:52:40.471Z,4.10
2019-03-25T19:55:09.397Z,4.00
2019-03-25T19:57:37.838Z,3.90
2019-03-25T20:00:12.170Z,3.90
2019-03-25T20:02:40.611Z,4.00
2019-03-25T20:05:09.334Z,4.00
2019-03-25T20:07:38.320Z,4.00
2019-03-25T20:10:08.433Z,4.10
2019-03-25T20:12:36.892Z,4.20
2019-03-25T20:15:07.097Z,4.20
2019-03-25T20:17:35.580Z,4.30
2019-03-25T20:20:08.630Z,4.30
2019-03-25T20:22:37.119Z,4.20
2019-03-25T20:25:07.075Z,4.30
2019-03-25T20:27:35.692Z,4.40
2019-03-25T20:30:07.959Z,4.40
2019-03-25T20:32:36.442Z,4.40
2019-03-25T20:35:06.101Z,4.40
2019-03-25T20:37:34.652Z,4.30
2019-03-25T20:40:03.764Z,4.40
2019-03-25T20:42:32.381Z,4.40
2019-03-25T20:45:00.840Z,4.50
2019-03-25T20:47:29.534Z,4.50
2019-03-25T20:49:58.263Z,4.50
2019-03-25T20:52:26.717Z,4.50
2019-03-25T20:54:55.201Z,4.50
2019-03-25T20:57:23.648Z,4.50
2019-03-25T20:59:52.085Z,4.40
2019-03-25T21:02:22.462Z,4.50
2019-03-25T21:04:50.890Z,4.50
2019-03-25T21:07:19.370Z,4.60
2019-03-25T21:09:47.862Z,4.60
2019-03-25T21:12:16.398Z,4.70
2019-03-25T21:14:44.891Z,4.70
2019-03-25T21:17:13.377Z,4.70
2019-03-25T21:19:44.755Z,4.80
2019-03-25T21:22:13.258Z,4.80
2019-03-25T21:24:41.818Z,4.90
2019-03-25T21:27:10.317Z,4.90
2019-03-25T21:29:38.801Z,5.00
2019-03-25T21:32:07.287Z,5.00
2019-03-25T21:34:35.733Z,5.10
2019-03-25T21:37:05.668Z,5.10
2019-03-25T21:39:34.333Z,5.10
2019-03-25T21:42:03.139Z,5.20
2019-03-25T21:44:31.686Z,5.20
2019-03-25T21:47:00.269Z,5.20
2019-03-25T21:49:28.790Z,5.20
2019-03-25T21:51:57.354Z,5.20
2019-03-25T21:54:25.921Z,5.10
2019-03-25T21:56:54.447Z,5.20
2019-03-25T21:59:22.997Z,5.20
2019-03-25T22:01:51.460Z,5.20
2019-03-25T22:04:19.928Z,5.30
2019-03-25T22:06:48.375Z,5.20
2019-03-25T22:09:16.818Z,5.20
2019-03-25T22:11:45.319Z,5.10
2019-03-25T22:14:13.823Z,5.10
2019-03-25T22:16:42.612Z,5.00
2019-03-25T22:19:12.299Z,5.10
2019-03-25T22:21:40.741Z,5.10
2019-03-25T22:24:09.138Z,5.20
2019-03-25T22:26:37.626Z,5.20
2019-03-25T22:29:06.144Z,5.30
2019-03-25T22:31:35.318Z,5.30
2019-03-25T22:34:03.723Z,5.30
2019-03-25T22:36:32.149Z,5.30
2019-03-25T22:39:00.561Z,5.30
2019-03-25T22:41:29.026Z,5.30
2019-03-25T22:43:57.851Z,5.20
2019-03-25T22:46:26.299Z,5.20
2019-03-25T22:48:54.762Z,5.30
2019-03-25T22:51:23.197Z,5.30
2019-03-25T22:53:51.597Z,5.30
2019-03-25T22:56:20.119Z,5.30
2019-03-25T22:58:48.570Z,5.30
2019-03-25T23:01:17.182Z,5.30
2019-03-25T23:03:45.577Z,5.20
2019-03-25T23:06:14.390Z,5.10
2019-03-25T23:08:42.814Z,5.10
2019-03-25T23:11:11.225Z,5.00
2019-03-25T23:13:39.649Z,5.00
2019-03-25T23:16:08.077Z,5.00
2019-03-25T23:18:36.493Z,5.00
2019-03-25T23:21:05.069Z,4.90
2019-03-25T23:23:33.470Z,4.90
2019-03-25T23:26:01.965Z,4.90
2019-03-25T23:28:30.442Z,5.00
2019-03-25T23:30:58.892Z,5.10
2019-03-25T23:33:27.373Z,5.00
2019-03-25T23:35:56.321Z,5.00
2019-03-25T23:38:24.785Z,5.00
2019-03-25T23:40:53.238Z,5.10
2019-03-25T23:43:21.674Z,5.10
2019-03-25T23:45:50.091Z,5.10
2019-03-25T23:48:18.521Z,5.10
2019-03-25T23:50:46.979Z,5.00
2019-03-25T23:53:15.428Z,4.90
2019-03-25T23:55:43.957Z,4.80
2019-03-25T23:58:12.375Z,4.70
